Time;durP1;ratioP1;P1;durP2;ratioP2;P2;SDS_P1;SDS_P2;PMS_P1;PMS_P2;Temp;Humidity;BMP_temperature;BMP_pressure;BME280_temperature;BME280_humidity;BME280_pressure;Samples;Min_cycle;Max_cycle;Signal;HPM_P1;HPM_P2
2023/02/01 00:04:51;;;;;;;8.13;4.80;;;8.50;99.90;;;;;;4888324;29;20423;-90
2023/02/01 02:10:10;;;;;;;8.23;2.73;;;8.10;99.90;;;;;;4869266;29;20446;-87
2023/02/01 03:52:50;;;;;;;11.80;4.00;;;8.10;99.90;;;;;;4888944;29;20499;-87
2023/02/01 03:56:36;;;;;;;13.80;4.53;;;8.00;99.90;;;;;;4876779;29;20860;-88
2023/02/01 04:33:16;;;;;;;12.30;3.47;;;8.00;99.90;;;;;;5024348;23;20529;-81
2023/02/01 04:37:12;;;;;;;8.23;3.53;;;8.00;99.90;;;;;;4885197;29;20617;-82
2023/02/01 04:40:08;;;;;;;;;;;;;;;;;;;;;
2023/02/01 04:43:36;;;;;;;8.73;3.40;;;7.90;99.90;;;;;;4876780;29;20840;-82
2023/02/01 04:46:37;;;;;;;12.97;5.17;;;7.90;99.90;;;;;;4856741;29;20481;-81
2023/02/01 04:50:00;;;;;;;11.93;4.03;;;7.90;99.90;;;;;;4860607;29;21019;-81
2023/02/01 04:53:04;;;;;;;12.13;4.77;;;7.90;99.90;;;;;;4892076;23;20500;-82
2023/02/01 04:55:44;;;;;;;10.00;3.37;;;7.90;99.90;;;;;;4876939;29;20511;-82
2023/02/01 04:59:28;;;;;;;9.23;3.67;;;7.80;99.90;;;;;;4866767;29;20467;-82
2023/02/01 05:02:17;;;;;;;14.57;4.37;;;7.80;99.90;;;;;;4863460;29;21030;-82
2023/02/01 05:05:23;;;;;;;10.40;3.60;;;7.70;99.90;;;;;;4809571;29;20617;-82
2023/02/01 05:08:13;;;;;;;10.63;4.33;;;7.70;99.90;;;;;;4849173;29;20460;-82
2023/02/01 05:10:56;;;;;;;9.30;4.27;;;7.70;99.90;;;;;;4859419;29;20890;-81
2023/02/01 05:13:52;;;;;;;10.10;3.87;;;7.60;99.90;;;;;;4801892;29;20453;-82
2023/02/01 05:17:21;;;;;;;8.13;3.43;;;7.60;99.90;;;;;;4750488;30;20466;-82
2023/02/01 05:20:24;;;;;;;11.20;2.93;;;7.60;99.90;;;;;;4767716;30;20458;-82
2023/02/01 05:23:20;;;;;;;9.40;3.63;;;7.60;99.90;;;;;;4764473;30;20573;-81
2023/02/01 05:27:17;;;;;;;12.33;3.73;;;7.60;99.90;;;;;;4732392;30;20495;-81
2023/02/01 05:29:44;;;;;;;7.73;3.10;;;7.60;99.90;;;;;;4745544;30;21272;-81
2023/02/01 05:33:09;;;;;;;10.83;3.27;;;7.60;99.90;;;;;;4720615;30;20491;-81
2023/02/01 05:36:42;;;;;;;10.03;5.03;;;7.50;99.90;;;;;;4725240;30;20495;-80
2023/02/01 05:39:56;;;;;;;;;;;;;;;;;;;;;
2023/02/01 05:43:11;;;;;;;11.00;3.00;;;7.50;99.90;;;;;;4660906;30;20522;-81
2023/02/01 05:45:52;;;;;;;7.97;2.93;;;7.50;99.90;;;;;;4737579;30;20465;-80
2023/02/01 05:53:29;;;;;;;8.43;3.43;;;7.40;99.90;;;;;;4756233;29;20578;-83
2023/02/01 05:57:41;;;;;;;;;;;;;;;;;;;;;
2023/02/01 06:01:55;;;;;;;10.33;3.13;;;7.40;99.90;;;;;;4744257;30;20463;-82
2023/02/01 06:04:42;;;;;;;10.20;3.00;;;7.40;99.90;;;;;;4677382;30;20553;-82
2023/02/01 06:08:08;;;;;;;9.00;3.20;;;7.40;99.90;;;;;;4713111;30;20458;-82
2023/02/01 06:14:47;;;;;;;6.90;2.70;;;7.40;99.90;;;;;;4789259;29;20492;-82
2023/02/01 06:18:11;;;;;;;7.43;3.10;;;7.30;99.90;;;;;;4803114;29;20472;-81
2023/02/01 06:31:42;;;;;;;14.43;2.67;;;7.30;99.90;;;;;;4789917;23;20909;-81
2023/02/01 06:35:17;;;;;;;8.00;2.50;;;7.30;99.90;;;;;;4860809;29;20530;-82
2023/02/01 06:38:06;;;;;;;5.80;2.70;;;7.30;99.90;;;;;;4877963;29;20495;-80
2023/02/01 06:47:29;;;;;;;10.53;3.00;;;7.20;99.90;;;;;;4870104;29;20528;-81
2023/02/01 06:50:25;;;;;;;6.97;3.20;;;7.20;99.90;;;;;;4820786;29;20518;-80
2023/02/01 06:57:30;;;;;;;12.13;3.20;;;7.20;99.90;;;;;;4789052;29;20456;-81
2023/02/01 07:00:55;;;;;;;;;;;;;;;;;;;;;
2023/02/01 07:04:32;;;;;;;12.83;3.67;;;7.30;99.90;;;;;;4792290;29;20553;-82
2023/02/01 07:07:44;;;;;;;4.93;3.20;;;7.40;99.90;;;;;;4748245;30;20560;-81
2023/02/01 07:22:38;;;;;;;;;;;;;;;;;;;;;
2023/02/01 07:25:50;;;;;;;14.23;3.50;;;7.50;99.90;;;;;;4895446;29;20639;-82
2023/02/01 07:29:07;;;;;;;;;;;;;;;;;;;;;
2023/02/01 07:40:12;;;;;;;15.80;3.90;;;7.60;99.90;;;;;;4784475;30;20462;-82
2023/02/01 07:43:12;;;;;;;8.43;2.80;;;7.60;99.90;;;;;;4774944;29;20505;-81
2023/02/01 07:50:22;;;;;;;10.63;3.07;;;7.50;99.90;;;;;;4808655;29;20454;-82
2023/02/01 08:20:45;;;;;;;14.07;4.23;;;7.60;99.90;;;;;;4882252;29;20470;-81
2023/02/01 08:24:07;;;;;;;12.47;3.00;;;7.60;99.90;;;;;;4833700;29;20463;-81
2023/02/01 08:43:00;;;;;;;15.90;3.43;;;7.60;99.90;;;;;;4791150;29;20892;-83
2023/02/01 08:46:16;;;;;;;9.07;4.10;;;7.60;99.90;;;;;;4736958;30;20451;-82
2023/02/01 08:49:49;;;;;;;10.43;3.30;;;7.60;99.90;;;;;;4694178;30;20462;-82
2023/02/01 08:56:56;;;;;;;10.30;3.20;;;7.60;99.90;;;;;;4616293;31;20539;-82
2023/02/01 09:03:54;;;;;;;13.43;4.50;;;7.80;99.90;;;;;;4717260;30;20471;-80
2023/02/01 09:10:46;;;;;;;;;;;;;;;;;;;;;
2023/02/01 09:14:21;;;;;;;15.33;3.40;;;8.10;99.90;;;;;;4631535;30;20459;-80
2023/02/01 09:17:51;;;;;;;;;;;;;;;;;;;;;
2023/02/01 09:33:28;;;;;;;;;;;;;;;;;;;;;
2023/02/01 09:37:07;;;;;;;6.83;3.00;;;8.40;99.30;;;;;;4735962;30;21035;-80
2023/02/01 09:40:40;;;;;;;10.80;2.97;;;8.40;99.30;;;;;;4733264;30;20554;-81
2023/02/01 09:44:33;;;;;;;;;;;;;;;;;;;;;
2023/02/01 10:04:00;;;;;;;;;;;;;;;;;;;;;
2023/02/01 11:20:26;;;;;;;10.83;3.77;;;9.60;95.90;;;;;;4846206;29;20505;-82
2023/02/01 11:24:17;;;;;;;6.27;2.93;;;9.60;96.10;;;;;;4854627;29;20460;-81
2023/02/01 11:36:55;;;;;;;;;;;;;;;;;;;;;
2023/02/01 11:44:03;;;;;;;14.70;5.80;;;9.50;95.80;;;;;;4923955;23;20489;-81
2023/02/01 11:47:50;;;;;;;;;;;;;;;;;;;;;
2023/02/01 11:55:17;;;;;;;8.50;3.00;;;9.60;95.80;;;;;;4887435;29;20550;-82
2023/02/01 11:58:37;;;;;;;6.83;3.10;;;9.60;95.90;;;;;;4886733;29;20474;-81
2023/02/01 12:01:35;;;;;;;6.00;2.50;;;9.40;95.90;;;;;;4937305;29;20488;-81
2023/02/01 12:07:48;;;;;;;8.37;2.40;;;9.40;96.00;;;;;;4881329;29;20475;-81
2023/02/01 12:11:09;;;;;;;6.67;2.90;;;9.40;96.00;;;;;;4871934;29;20569;-80
2023/02/01 12:19:05;;;;;;;9.60;2.87;;;9.40;95.90;;;;;;4790343;29;20488;-80
2023/02/01 12:21:57;;;;;;;5.93;2.93;;;9.30;95.80;;;;;;4867266;29;20568;-80
2023/02/01 12:25:22;;;;;;;9.33;3.43;;;9.30;96.00;;;;;;4859526;29;20534;-81
2023/02/01 12:28:46;;;;;;;;;;;;;;;;;;;;;
2023/02/01 12:33:06;;;;;;;4.57;2.77;;;9.30;96.20;;;;;;4889724;29;20543;-80
2023/02/01 12:36:01;;;;;;;6.97;3.30;;;9.20;96.20;;;;;;4875248;29;20490;-80
2023/02/01 12:39:09;;;;;;;7.03;2.70;;;9.30;96.20;;;;;;4880779;29;20520;-80
2023/02/01 12:42:10;;;;;;;;;;;;;;;;;;;;;
2023/02/01 12:48:44;;;;;;;5.83;2.73;;;9.40;96.10;;;;;;4877685;29;20470;-80
2023/02/01 12:52:33;;;;;;;12.83;2.83;;;9.40;96.10;;;;;;4885677;29;20478;-80
2023/02/01 12:56:06;;;;;;;6.10;2.73;;;9.40;96.10;;;;;;4885039;29;21916;-81
2023/02/01 12:59:47;;;;;;;;;;;;;;;;;;;;;
2023/02/01 13:10:21;;;;;;;11.73;3.17;;;9.30;96.30;;;;;;4837169;29;20608;-80
2023/02/01 13:13:21;;;;;;;9.57;2.67;;;9.30;96.30;;;;;;4812830;29;20636;-80
2023/02/01 13:16:45;;;;;;;9.87;2.70;;;9.40;96.30;;;;;;4832024;29;20657;-81
2023/02/01 13:19:53;;;;;;;9.83;3.10;;;9.30;96.40;;;;;;4799102;29;20475;-81
2023/02/01 13:22:43;;;;;;;6.07;2.63;;;9.30;96.50;;;;;;4802979;29;20491;-81
2023/02/01 13:26:28;;;;;;;13.60;3.40;;;9.30;96.50;;;;;;4798171;29;20476;-80
2023/02/01 13:29:22;;;;;;;;;;;;;;;;;;;;;
2023/02/01 13:33:02;;;;;;;9.30;2.83;;;9.30;96.60;;;;;;4832399;23;20502;-80
2023/02/01 13:36:39;;;;;;;12.57;4.10;;;9.30;96.80;;;;;;4874504;29;20659;-81
2023/02/01 13:54:36;;;;;;;14.03;2.87;;;9.30;97.50;;;;;;4778904;29;20483;-80
2023/02/01 14:02:18;;;;;;;6.03;2.00;;;9.30;97.90;;;;;;4778610;29;20552;-79
2023/02/01 14:05:51;;;;;;;9.40;3.33;;;9.30;97.90;;;;;;4804247;29;21056;-80
2023/02/01 14:17:07;;;;;;;10.30;2.90;;;9.30;97.40;;;;;;4788722;29;20494;-79
2023/02/01 14:20:34;;;;;;;9.77;2.17;;;9.30;97.10;;;;;;4766825;29;20470;-78
2023/02/01 14:24:05;;;;;;;6.90;2.27;;;9.30;97.00;;;;;;4762326;29;20583;-81
2023/02/01 14:27:13;;;;;;;10.60;2.70;;;9.30;96.90;;;;;;4792131;29;20603;-79
2023/02/01 14:34:10;;;;;;;11.43;2.73;;;9.40;96.60;;;;;;4830354;29;20471;-80
2023/02/01 14:37:25;;;;;;;7.90;2.27;;;9.40;96.90;;;;;;4821362;29;20490;-81
2023/02/01 14:40:40;;;;;;;;;;;;;;;;;;;;;
2023/02/01 14:44:05;;;;;;;9.90;2.50;;;9.40;96.40;;;;;;4831879;29;20476;-80
2023/02/01 14:47:29;;;;;;;9.43;2.50;;;9.40;96.30;;;;;;4856981;29;20523;-81
2023/02/01 14:58:15;;;;;;;6.97;3.73;;;9.40;96.10;;;;;;4904225;29;20501;-79
2023/02/01 15:01:22;;;;;;;7.13;3.03;;;9.40;96.10;;;;;;4903479;29;20477;-80
2023/02/01 15:08:20;;;;;;;7.00;2.07;;;9.50;96.10;;;;;;4875017;29;20879;-81
2023/02/01 15:11:04;;;;;;;6.10;2.53;;;9.50;96.00;;;;;;4867578;29;20468;-79
2023/02/01 15:14:23;;;;;;;8.73;2.53;;;9.50;95.90;;;;;;4838631;29;20466;-80
2023/02/01 15:17:51;;;;;;;10.93;2.90;;;9.50;95.80;;;;;;4825356;29;20493;-81
2023/02/01 15:24:25;;;;;;;7.10;2.60;;;9.50;95.80;;;;;;3209780;27;20480;-80
2023/02/01 15:36:32;;;;;;;7.93;2.77;;;9.50;95.70;;;;;;4859744;29;20481;-80
2023/02/01 15:46:13;;;;;;;7.57;2.40;;;9.50;95.60;;;;;;4858381;29;20476;-81
2023/02/01 15:49:55;;;;;;;;;;;;;;;;;;;;;
2023/02/01 15:57:06;;;;;;;9.97;2.80;;;9.60;95.70;;;;;;4843560;29;20557;-80
2023/02/01 16:00:46;;;;;;;6.80;2.77;;;9.50;95.70;;;;;;4861841;29;20868;-80
2023/02/01 16:14:11;;;;;;;4.00;2.40;;;9.50;96.00;;;;;;4910797;23;20510;-80
2023/02/01 16:17:30;;;;;;;9.57;2.53;;;9.50;96.00;;;;;;4924326;29;20548;-80
2023/02/01 16:20:48;;;;;;;7.90;2.73;;;9.50;96.60;;;;;;4855787;29;20471;-82
2023/02/01 16:23:41;;;;;;;;;;;;;;;;;;;;;
2023/02/01 16:26:38;;;;;;;6.27;2.80;;;9.50;98.00;;;;;;4820097;29;20548;-80
2023/02/01 16:34:07;;;;;;;3.93;2.33;;;9.30;99.20;;;;;;4753939;30;20897;-81
2023/02/01 16:37:25;;;;;;;8.17;2.70;;;9.30;99.90;;;;;;4705635;30;20519;-81
2023/02/01 16:43:29;;;;;;;12.20;3.23;;;9.20;99.90;;;;;;4704195;30;20529;-80
2023/02/01 16:46:40;;;;;;;9.00;2.40;;;9.10;99.90;;;;;;4703117;30;20569;-80
2023/02/01 16:49:51;;;;;;;5.33;2.57;;;9.10;99.90;;;;;;4701225;30;20487;-81
2023/02/01 16:57:06;;;;;;;14.50;3.00;;;9.00;99.90;;;;;;4759933;29;20512;-80
2023/02/01 17:00:04;;;;;;;8.77;2.40;;;9.00;99.90;;;;;;4783450;29;20468;-81
2023/02/01 17:03:11;;;;;;;10.37;2.90;;;8.90;99.90;;;;;;4791514;29;20725;-80
2023/02/01 17:06:32;;;;;;;12.37;3.30;;;8.90;99.90;;;;;;4766056;29;20471;-81
2023/02/01 17:10:02;;;;;;;9.33;3.60;;;9.00;99.90;;;;;;4806846;29;20459;-79
2023/02/01 17:13:13;;;;;;;13.07;3.47;;;8.90;99.90;;;;;;4835482;29;20570;-81
2023/02/01 17:16:32;;;;;;;9.53;2.50;;;8.90;99.90;;;;;;4834355;29;20575;-79
2023/02/01 17:19:26;;;;;;;10.57;3.53;;;8.90;99.90;;;;;;4836959;29;21309;-81
2023/02/01 17:25:07;;;;;;;5.33;2.40;;;8.80;99.90;;;;;;4831686;29;20483;-81
2023/02/01 17:28:46;;;;;;;9.17;2.67;;;8.80;99.90;;;;;;4823359;29;21101;-82
2023/02/01 17:35:18;;;;;;;11.20;3.00;;;8.80;99.90;;;;;;4888400;29;20467;-81
2023/02/01 17:38:31;;;;;;;6.30;2.80;;;8.80;99.90;;;;;;4890863;29;20491;-81
2023/02/01 17:41:36;;;;;;;6.17;2.57;;;8.90;99.90;;;;;;4876099;29;20444;-81
2023/02/01 17:44:40;;;;;;;9.17;3.03;;;8.80;99.90;;;;;;4902684;29;20469;-81
2023/02/01 17:47:40;;;;;;;8.07;3.00;;;8.80;99.90;;;;;;4888094;29;21193;-81
2023/02/01 17:51:15;;;;;;;5.90;2.80;;;8.80;99.90;;;;;;4902813;29;20438;-80
2023/02/01 17:57:38;;;;;;;9.03;3.87;;;8.80;99.90;;;;;;4833994;29;20486;-80
2023/02/01 18:00:31;;;;;;;12.50;4.93;;;8.70;99.90;;;;;;4820571;29;20473;-79
2023/02/01 18:16:49;;;;;;;9.60;2.47;;;8.70;99.90;;;;;;1229106;27;20587;-80
2023/02/01 18:20:18;;;;;;;7.30;3.53;;;8.80;99.90;;;;;;4862754;29;20464;-81
2023/02/01 18:23:38;;;;;;;;;;;;;;;;;;;;;
2023/02/01 18:31:04;;;;;;;;;;;;;;;;;;;;;
2023/02/01 18:34:37;;;;;;;8.37;2.50;;;8.80;99.90;;;;;;4866634;29;20492;-81
2023/02/01 18:37:37;;;;;;;11.07;3.27;;;8.80;99.90;;;;;;4827984;29;20494;-80
2023/02/01 18:46:48;;;;;;;6.43;2.83;;;8.80;99.90;;;;;;2127357;23;21705;-80
2023/02/01 18:49:41;;;;;;;;;;;;;;;;;;;;;
2023/02/01 18:56:53;;;;;;;11.47;3.50;;;8.80;99.90;;;;;;4914347;29;20480;-80
2023/02/01 19:00:55;;;;;;;7.97;2.93;;;8.80;99.90;;;;;;4878939;29;20496;-80
2023/02/01 19:03:58;;;;;;;9.30;2.70;;;8.80;99.90;;;;;;4967210;23;20517;-81
2023/02/01 19:14:35;;;;;;;;;;;;;;;;;;;;;
2023/02/01 19:28:18;;;;;;;8.33;3.10;;;8.90;99.90;;;;;;4888598;29;20630;-81
2023/02/01 19:31:32;;;;;;;9.80;3.60;;;8.90;99.90;;;;;;4881968;29;20567;-81
2023/02/01 19:34:51;;;;;;;5.77;2.97;;;8.90;99.90;;;;;;4892704;29;20538;-80
2023/02/01 19:37:58;;;;;;;6.13;2.80;;;9.00;99.90;;;;;;4884515;29;21850;-81
2023/02/01 19:41:42;;;;;;;10.93;3.47;;;9.00;99.90;;;;;;4883665;29;20982;-81
2023/02/01 19:45:09;;;;;;;8.20;3.23;;;8.90;99.90;;;;;;4857877;29;20520;-81
2023/02/01 19:49:10;;;;;;;;;;;;;;;;;;;;;
2023/02/01 19:53:23;;;;;;;8.90;3.70;;;8.90;99.90;;;;;;4934026;23;20581;-81
2023/02/01 20:00:25;;;;;;;7.17;2.97;;;8.90;99.90;;;;;;4897266;29;20463;-80
2023/02/01 20:11:18;;;;;;;9.13;3.17;;;8.90;99.90;;;;;;4845565;29;20438;-80
2023/02/01 20:14:29;;;;;;;10.23;4.70;;;8.90;99.90;;;;;;4837373;29;20560;-80
2023/02/01 20:17:48;;;;;;;9.57;3.77;;;8.90;99.90;;;;;;4833001;29;20514;-81
2023/02/01 20:21:42;;;;;;;;;;;;;;;;;;;;;
2023/02/01 20:29:06;;;;;;;5.53;3.00;;;9.00;99.90;;;;;;4742013;30;20459;-80
2023/02/01 21:06:14;;;;;;;8.70;3.00;;;9.00;99.90;;;;;;4676442;30;20549;-80
2023/02/01 21:18:01;;;;;;;8.70;3.27;;;9.00;99.90;;;;;;4898803;29;20636;-79
2023/02/01 21:24:49;;;;;;;14.17;4.20;;;9.00;99.90;;;;;;4950424;23;20484;-80
2023/02/01 21:31:58;;;;;;;9.40;3.70;;;9.00;99.90;;;;;;4889285;29;20838;-79
2023/02/01 21:35:18;;;;;;;;;;;;;;;;;;;;;
2023/02/01 21:39:22;;;;;;;;;;;;;;;;;;;;;
2023/02/01 21:42:36;;;;;;;12.03;3.40;;;9.00;99.90;;;;;;4725520;30;20550;-81
2023/02/01 21:45:24;;;;;;;11.90;3.60;;;9.00;99.90;;;;;;4733438;30;20467;-81
2023/02/01 21:48:34;;;;;;;9.73;3.40;;;9.00;99.90;;;;;;4737336;30;20458;-80
2023/02/01 21:55:39;;;;;;;7.10;3.33;;;9.00;99.90;;;;;;4683005;30;20981;-81
2023/02/01 21:58:37;;;;;;;6.47;3.50;;;9.00;99.90;;;;;;4684086;30;20509;-80
2023/02/01 22:01:09;;;;;;;10.20;3.93;;;9.00;99.90;;;;;;4695992;30;20969;-79
2023/02/01 22:03:48;;;;;;;18.60;4.57;;;9.00;99.90;;;;;;4695424;30;20508;-81
2023/02/01 22:07:31;;;;;;;8.53;3.30;;;9.00;99.90;;;;;;4749630;30;20470;-82
2023/02/01 22:10:31;;;;;;;12.00;4.27;;;9.10;99.90;;;;;;4736907;30;20465;-81
2023/02/01 22:14:09;;;;;;;7.60;3.47;;;9.10;99.90;;;;;;4723667;29;20936;-80
2023/02/01 22:17:16;;;;;;;9.13;3.83;;;9.20;99.90;;;;;;4783330;29;20495;-81
2023/02/01 22:23:14;;;;;;;10.30;3.77;;;9.10;99.90;;;;;;4776574;29;20492;-82
2023/02/01 22:26:16;;;;;;;10.33;4.00;;;9.20;99.90;;;;;;4767290;29;20469;-81
2023/02/01 22:29:29;;;;;;;17.10;3.60;;;9.20;99.90;;;;;;4773812;29;20488;-81
2023/02/01 22:32:30;;;;;;;10.20;3.60;;;9.10;99.90;;;;;;4809498;29;20478;-81
2023/02/01 22:39:31;;;;;;;6.90;2.90;;;9.20;99.90;;;;;;4857284;29;20445;-81
2023/02/01 22:42:39;;;;;;;13.00;3.50;;;9.20;99.90;;;;;;4778746;29;20501;-80
2023/02/01 22:45:57;;;;;;;10.23;4.23;;;9.10;99.90;;;;;;4789830;29;20479;-81
2023/02/01 22:48:43;;;;;;;7.40;3.07;;;9.10;99.90;;;;;;4774792;29;20571;-81
2023/02/01 22:54:36;;;;;;;10.30;3.70;;;9.20;99.90;;;;;;1230249;27;20478;-81
2023/02/01 22:57:48;;;;;;;11.27;3.93;;;9.20;99.90;;;;;;4831228;29;20487;-79
2023/02/01 23:00:23;;;;;;;9.33;4.80;;;9.20;99.90;;;;;;4828418;29;20469;-79
2023/02/01 23:03:21;;;;;;;11.97;3.57;;;9.20;99.90;;;;;;4917638;23;20681;-81
2023/02/01 23:25:54;;;;;;;8.60;4.50;;;9.10;99.90;;;;;;4876740;29;20463;-79
2023/02/01 23:39:01;;;;;;;11.33;3.73;;;9.10;99.90;;;;;;4850625;29;20490;-81
2023/02/01 23:42:23;;;;;;;9.53;3.73;;;9.00;99.90;;;;;;4808878;29;20638;-81
2023/02/01 23:49:48;;;;;;;;;;;;;;;;;;;;;
2023/02/01 23:53:11;;;;;;;12.33;3.90;;;9.00;99.90;;;;;;4821213;29;20497;-80
2023/02/01 23:56:59;;;;;;;;;;;;;;;;;;;;;
